sensor_id;sensor_type;location;lat;lon;timestamp;temperature;humidity
74359;DHT22;62792;46.236;6.040;2023-07-28T00:02:28;26.40;51.20
74359;DHT22;62792;46.236;6.040;2023-07-28T00:07:32;26.50;51.30
74359;DHT22;62792;46.236;6.040;2023-07-28T00:12:37;26.40;51.30
74359;DHT22;62792;46.236;6.040;2023-07-28T00:17:40;26.40;51.50
74359;DHT22;62792;46.236;6.040;2023-07-28T00:22:45;26.40;51.80
74359;DHT22;62792;46.236;6.040;2023-07-28T00:27:48;26.50;51.60
74359;DHT22;62792;46.236;6.040;2023-07-28T00:32:52;26.40;51.90
74359;DHT22;62792;46.236;6.040;2023-07-28T00:37:56;26.40;52.00
74359;DHT22;62792;46.236;6.040;2023-07-28T00:42:59;26.40;52.00
74359;DHT22;62792;46.236;6.040;2023-07-28T00:48:02;26.40;52.30
74359;DHT22;62792;46.236;6.040;2023-07-28T00:53:10;26.40;52.30
74359;DHT22;62792;46.236;6.040;2023-07-28T00:58:13;26.30;53.40
74359;DHT22;62792;46.236;6.040;2023-07-28T01:03:17;26.40;52.60
74359;DHT22;62792;46.236;6.040;2023-07-28T01:08:23;26.30;53.80
74359;DHT22;62792;46.236;6.040;2023-07-28T01:13:30;26.30;53.70
74359;DHT22;62792;46.236;6.040;2023-07-28T01:18:33;26.30;53.90
74359;DHT22;62792;46.236;6.040;2023-07-28T01:23:40;26.30;54.20
74359;DHT22;62792;46.236;6.040;2023-07-28T01:28:46;26.30;54.20
74359;DHT22;62792;46.236;6.040;2023-07-28T01:33:52;26.30;54.30
74359;DHT22;62792;46.236;6.040;2023-07-28T01:38:55;26.30;54.60
74359;DHT22;62792;46.236;6.040;2023-07-28T01:43:59;26.30;54.60
74359;DHT22;62792;46.236;6.040;2023-07-28T01:49:02;26.20;54.60
74359;DHT22;62792;46.236;6.040;2023-07-28T01:54:06;26.30;54.60
74359;DHT22;62792;46.236;6.040;2023-07-28T01:59:10;26.20;54.50
74359;DHT22;62792;46.236;6.040;2023-07-28T02:04:14;26.20;54.70
74359;DHT22;62792;46.236;6.040;2023-07-28T02:09:17;26.20;54.60
74359;DHT22;62792;46.236;6.040;2023-07-28T02:14:21;26.20;54.60
74359;DHT22;62792;46.236;6.040;2023-07-28T02:19:25;26.20;54.40
74359;DHT22;62792;46.236;6.040;2023-07-28T02:24:29;26.30;54.80
74359;DHT22;62792;46.236;6.040;2023-07-28T02:29:34;26.20;54.70
74359;DHT22;62792;46.236;6.040;2023-07-28T02:34:39;26.20;55.20
74359;DHT22;62792;46.236;6.040;2023-07-28T02:39:42;26.20;55.30
74359;DHT22;62792;46.236;6.040;2023-07-28T02:44:46;26.20;55.60
74359;DHT22;62792;46.236;6.040;2023-07-28T02:49:49;26.20;55.90
74359;DHT22;62792;46.236;6.040;2023-07-28T02:54:52;26.10;56.00
74359;DHT22;62792;46.236;6.040;2023-07-28T02:59:57;26.00;56.30
74359;DHT22;62792;46.236;6.040;2023-07-28T03:05:00;26.00;56.50
74359;DHT22;62792;46.236;6.040;2023-07-28T03:10:03;26.10;56.70
74359;DHT22;62792;46.236;6.040;2023-07-28T03:15:08;26.00;56.70
74359;DHT22;62792;46.236;6.040;2023-07-28T03:20:11;26.00;57.00
74359;DHT22;62792;46.236;6.040;2023-07-28T03:25:14;26.10;57.10
74359;DHT22;62792;46.236;6.040;2023-07-28T03:30:18;26.10;57.00
74359;DHT22;62792;46.236;6.040;2023-07-28T03:35:21;26.10;57.00
74359;DHT22;62792;46.236;6.040;2023-07-28T03:40:24;26.10;56.80
74359;DHT22;62792;46.236;6.040;2023-07-28T03:45:29;26.10;56.90
74359;DHT22;62792;46.236;6.040;2023-07-28T03:50:32;26.10;56.80
74359;DHT22;62792;46.236;6.040;2023-07-28T03:55:35;26.10;56.70
74359;DHT22;62792;46.236;6.040;2023-07-28T04:00:39;26.10;56.90
74359;DHT22;62792;46.236;6.040;2023-07-28T04:05:42;26.10;56.80
74359;DHT22;62792;46.236;6.040;2023-07-28T04:10:45;26.10;56.60
74359;DHT22;62792;46.236;6.040;2023-07-28T04:15:49;26.00;56.80
74359;DHT22;62792;46.236;6.040;2023-07-28T04:20:52;26.10;56.90
74359;DHT22;62792;46.236;6.040;2023-07-28T04:25:57;26.10;56.60
74359;DHT22;62792;46.236;6.040;2023-07-28T04:31:01;26.10;57.00
74359;DHT22;62792;46.236;6.040;2023-07-28T04:36:04;26.10;56.70
74359;DHT22;62792;46.236;6.040;2023-07-28T04:41:07;26.10;56.60
74359;DHT22;62792;46.236;6.040;2023-07-28T04:46:12;26.10;56.50
74359;DHT22;62792;46.236;6.040;2023-07-28T04:51:15;26.10;56.70
74359;DHT22;62792;46.236;6.040;2023-07-28T04:56:17;26.00;56.70
74359;DHT22;62792;46.236;6.040;2023-07-28T05:01:22;26.10;56.50
74359;DHT22;62792;46.236;6.040;2023-07-28T05:06:24;26.10;56.50
74359;DHT22;62792;46.236;6.040;2023-07-28T05:11:27;26.20;56.50
74359;DHT22;62792;46.236;6.040;2023-07-28T05:16:32;26.10;56.80
74359;DHT22;62792;46.236;6.040;2023-07-28T05:21:35;26.10;56.50
74359;DHT22;62792;46.236;6.040;2023-07-28T05:26:37;26.10;56.60
74359;DHT22;62792;46.236;6.040;2023-07-28T05:31:42;26.10;56.50
74359;DHT22;62792;46.236;6.040;2023-07-28T05:36:45;26.00;56.70
74359;DHT22;62792;46.236;6.040;2023-07-28T05:41:47;26.10;56.40
74359;DHT22;62792;46.236;6.040;2023-07-28T05:46:52;26.10;56.70
74359;DHT22;62792;46.236;6.040;2023-07-28T05:51:55;26.10;56.50
74359;DHT22;62792;46.236;6.040;2023-07-28T05:56:57;26.10;56.60
74359;DHT22;62792;46.236;6.040;2023-07-28T06:02:03;26.00;56.70
74359;DHT22;62792;46.236;6.040;2023-07-28T06:07:06;26.00;56.50
74359;DHT22;62792;46.236;6.040;2023-07-28T06:12:09;26.10;56.70
74359;DHT22;62792;46.236;6.040;2023-07-28T06:17:13;26.10;56.80
74359;DHT22;62792;46.236;6.040;2023-07-28T06:22:16;26.10;56.80
74359;DHT22;62792;46.236;6.040;2023-07-28T06:27:19;26.00;56.50
74359;DHT22;62792;46.236;6.040;2023-07-28T06:32:26;26.10;56.70
74359;DHT22;62792;46.236;6.040;2023-07-28T06:37:29;26.10;56.50
74359;DHT22;62792;46.236;6.040;2023-07-28T06:42:32;26.00;56.90
74359;DHT22;62792;46.236;6.040;2023-07-28T06:47:37;26.10;57.00
74359;DHT22;62792;46.236;6.040;2023-07-28T06:52:39;26.00;59.30
74359;DHT22;62792;46.236;6.040;2023-07-28T06:57:42;25.50;63.10
74359;DHT22;62792;46.236;6.040;2023-07-28T07:02:47;25.30;64.10
74359;DHT22;62792;46.236;6.040;2023-07-28T07:07:50;25.20;64.20
74359;DHT22;62792;46.236;6.040;2023-07-28T07:12:54;25.40;64.40
74359;DHT22;62792;46.236;6.040;2023-07-28T07:18:00;25.60;64.30
74359;DHT22;62792;46.236;6.040;2023-07-28T07:23:03;25.70;64.90
74359;DHT22;62792;46.236;6.040;2023-07-28T07:28:07;25.70;65.00
74359;DHT22;62792;46.236;6.040;2023-07-28T07:33:11;25.90;64.70
74359;DHT22;62792;46.236;6.040;2023-07-28T07:38:14;25.60;66.30
74359;DHT22;62792;46.236;6.040;2023-07-28T07:43:17;25.00;68.50
74359;DHT22;62792;46.236;6.040;2023-07-28T07:48:23;25.20;67.80
74359;DHT22;62792;46.236;6.040;2023-07-28T07:53:26;25.60;66.20
74359;DHT22;62792;46.236;6.040;2023-07-28T07:58:28;25.80;65.80
74359;DHT22;62792;46.236;6.040;2023-07-28T08:03:33;25.80;65.40
74359;DHT22;62792;46.236;6.040;2023-07-28T08:08:37;26.00;65.00
74359;DHT22;62792;46.236;6.040;2023-07-28T08:13:44;26.30;64.50
74359;DHT22;62792;46.236;6.040;2023-07-28T08:18:51;26.10;65.20
74359;DHT22;62792;46.236;6.040;2023-07-28T08:23:54;26.30;65.00
74359;DHT22;62792;46.236;6.040;2023-07-28T08:28:57;26.50;64.10
74359;DHT22;62792;46.236;6.040;2023-07-28T08:34:01;26.50;64.10
74359;DHT22;62792;46.236;6.040;2023-07-28T08:39:04;26.60;63.50
74359;DHT22;62792;46.236;6.040;2023-07-28T08:44:07;26.60;63.60
74359;DHT22;62792;46.236;6.040;2023-07-28T08:49:11;26.70;63.60
74359;DHT22;62792;46.236;6.040;2023-07-28T08:54:14;26.50;64.20
74359;DHT22;62792;46.236;6.040;2023-07-28T08:59:20;26.50;64.30
74359;DHT22;62792;46.236;6.040;2023-07-28T09:04:25;26.70;64.10
74359;DHT22;62792;46.236;6.040;2023-07-28T09:09:31;26.90;63.60
74359;DHT22;62792;46.236;6.040;2023-07-28T09:14:35;26.80;63.90
74359;DHT22;62792;46.236;6.040;2023-07-28T09:19:52;26.90;63.80
74359;DHT22;62792;46.236;6.040;2023-07-28T09:24:56;26.70;63.80
74359;DHT22;62792;46.236;6.040;2023-07-28T09:29:59;26.90;62.90
74359;DHT22;62792;46.236;6.040;2023-07-28T09:35:07;27.00;63.00
74359;DHT22;62792;46.236;6.040;2023-07-28T09:40:12;27.00;62.50
74359;DHT22;62792;46.236;6.040;2023-07-28T09:45:16;27.10;62.10
74359;DHT22;62792;46.236;6.040;2023-07-28T09:50:39;27.10;62.20
74359;DHT22;62792;46.236;6.040;2023-07-28T09:55:43;27.10;62.60
74359;DHT22;62792;46.236;6.040;2023-07-28T10:00:46;27.20;61.70
74359;DHT22;62792;46.236;6.040;2023-07-28T10:05:51;27.10;61.20
74359;DHT22;62792;46.236;6.040;2023-07-28T10:10:55;27.10;61.10
74359;DHT22;62792;46.236;6.040;2023-07-28T10:15:59;27.00;60.80
74359;DHT22;62792;46.236;6.040;2023-07-28T10:21:06;26.90;61.20
74359;DHT22;62792;46.236;6.040;2023-07-28T10:26:11;27.00;61.10
74359;DHT22;62792;46.236;6.040;2023-07-28T10:31:15;27.10;60.90
74359;DHT22;62792;46.236;6.040;2023-07-28T10:36:33;27.20;60.70
74359;DHT22;62792;46.236;6.040;2023-07-28T10:41:37;27.20;60.40
74359;DHT22;62792;46.236;6.040;2023-07-28T10:46:40;27.20;59.80
74359;DHT22;62792;46.236;6.040;2023-07-28T10:51:45;27.20;60.10
74359;DHT22;62792;46.236;6.040;2023-07-28T10:56:48;27.20;60.10
74359;DHT22;62792;46.236;6.040;2023-07-28T11:01:51;27.20;60.00
74359;DHT22;62792;46.236;6.040;2023-07-28T11:06:55;27.10;58.40
74359;DHT22;62792;46.236;6.040;2023-07-28T11:11:58;27.20;58.30
74359;DHT22;62792;46.236;6.040;2023-07-28T11:17:02;27.30;57.80
74359;DHT22;62792;46.236;6.040;2023-07-28T11:22:09;27.30;57.40
74359;DHT22;62792;46.236;6.040;2023-07-28T11:27:12;27.40;57.10
74359;DHT22;62792;46.236;6.040;2023-07-28T11:32:15;27.40;56.80
74359;DHT22;62792;46.236;6.040;2023-07-28T11:37:19;27.50;56.70
74359;DHT22;62792;46.236;6.040;2023-07-28T11:42:22;27.50;56.50
74359;DHT22;62792;46.236;6.040;2023-07-28T11:47:25;27.50;56.80
74359;DHT22;62792;46.236;6.040;2023-07-28T11:52:32;27.40;56.70
74359;DHT22;62792;46.236;6.040;2023-07-28T11:57:36;27.50;56.60
74359;DHT22;62792;46.236;6.040;2023-07-28T12:02:39;27.50;56.60
74359;DHT22;62792;46.236;6.040;2023-07-28T12:07:47;27.50;57.10
74359;DHT22;62792;46.236;6.040;2023-07-28T12:12:51;27.40;56.70
74359;DHT22;62792;46.236;6.040;2023-07-28T12:18:01;27.60;56.50
74359;DHT22;62792;46.236;6.040;2023-07-28T12:23:09;27.70;56.00
74359;DHT22;62792;46.236;6.040;2023-07-28T12:28:15;27.50;56.00
74359;DHT22;62792;46.236;6.040;2023-07-28T12:33:21;27.70;55.80
74359;DHT22;62792;46.236;6.040;2023-07-28T12:38:25;27.90;55.90
74359;DHT22;62792;46.236;6.040;2023-07-28T12:43:31;27.80;55.60
74359;DHT22;62792;46.236;6.040;2023-07-28T12:48:37;27.80;55.80
74359;DHT22;62792;46.236;6.040;2023-07-28T12:53:44;27.80;55.30
74359;DHT22;62792;46.236;6.040;2023-07-28T12:58:47;27.90;55.50
74359;DHT22;62792;46.236;6.040;2023-07-28T13:03:53;27.90;54.10
74359;DHT22;62792;46.236;6.040;2023-07-28T13:08:58;28.00;54.00
74359;DHT22;62792;46.236;6.040;2023-07-28T13:14:04;28.10;53.50
74359;DHT22;62792;46.236;6.040;2023-07-28T13:19:06;28.20;53.80
74359;DHT22;62792;46.236;6.040;2023-07-28T13:24:11;28.10;54.10
74359;DHT22;62792;46.236;6.040;2023-07-28T13:29:14;28.30;54.30
74359;DHT22;62792;46.236;6.040;2023-07-28T13:34:16;28.10;53.70
74359;DHT22;62792;46.236;6.040;2023-07-28T13:39:21;28.10;54.10
74359;DHT22;62792;46.236;6.040;2023-07-28T13:44:24;28.40;54.00
74359;DHT22;62792;46.236;6.040;2023-07-28T13:49:30;27.60;53.90
74359;DHT22;62792;46.236;6.040;2023-07-28T13:54:53;27.80;54.90
74359;DHT22;62792;46.236;6.040;2023-07-28T13:59:59;28.00;54.60
74359;DHT22;62792;46.236;6.040;2023-07-28T14:05:02;28.50;54.10
74359;DHT22;62792;46.236;6.040;2023-07-28T14:10:07;28.70;53.90
74359;DHT22;62792;46.236;6.040;2023-07-28T14:15:10;28.80;53.70
74359;DHT22;62792;46.236;6.040;2023-07-28T14:20:13;28.80;53.60
74359;DHT22;62792;46.236;6.040;2023-07-28T14:25:17;28.80;53.80
74359;DHT22;62792;46.236;6.040;2023-07-28T14:30:20;28.80;54.00
74359;DHT22;62792;46.236;6.040;2023-07-28T14:35:23;28.80;53.90
74359;DHT22;62792;46.236;6.040;2023-07-28T14:40:27;28.80;54.10
74359;DHT22;62792;46.236;6.040;2023-07-28T14:45:30;28.80;53.90
74359;DHT22;62792;46.236;6.040;2023-07-28T14:50:33;28.70;54.10
74359;DHT22;62792;46.236;6.040;2023-07-28T14:55:37;28.80;54.00
74359;DHT22;62792;46.236;6.040;2023-07-28T15:00:40;28.90;53.80
74359;DHT22;62792;46.236;6.040;2023-07-28T15:05:43;29.10;52.50
74359;DHT22;62792;46.236;6.040;2023-07-28T15:10:47;28.90;53.60
74359;DHT22;62792;46.236;6.040;2023-07-28T15:15:50;28.80;53.50
74359;DHT22;62792;46.236;6.040;2023-07-28T15:20:53;28.70;53.60
74359;DHT22;62792;46.236;6.040;2023-07-28T15:25:59;28.70;53.40
74359;DHT22;62792;46.236;6.040;2023-07-28T15:31:02;28.60;52.60
74359;DHT22;62792;46.236;6.040;2023-07-28T15:36:05;28.50;52.50
74359;DHT22;62792;46.236;6.040;2023-07-28T15:41:10;28.30;52.10
74359;DHT22;62792;46.236;6.040;2023-07-28T15:46:13;28.30;52.10
74359;DHT22;62792;46.236;6.040;2023-07-28T15:51:16;28.20;52.40
74359;DHT22;62792;46.236;6.040;2023-07-28T15:56:20;28.20;51.90
74359;DHT22;62792;46.236;6.040;2023-07-28T16:01:23;28.40;51.70
74359;DHT22;62792;46.236;6.040;2023-07-28T16:06:26;28.30;52.20
74359;DHT22;62792;46.236;6.040;2023-07-28T16:11:31;28.40;53.40
74359;DHT22;62792;46.236;6.040;2023-07-28T16:16:35;28.20;53.60
74359;DHT22;62792;46.236;6.040;2023-07-28T16:21:38;28.30;52.50
74359;DHT22;62792;46.236;6.040;2023-07-28T16:26:42;28.20;52.30
74359;DHT22;62792;46.236;6.040;2023-07-28T16:31:45;28.40;51.70
74359;DHT22;62792;46.236;6.040;2023-07-28T16:36:48;28.50;51.80
74359;DHT22;62792;46.236;6.040;2023-07-28T16:41:52;28.50;52.00
74359;DHT22;62792;46.236;6.040;2023-07-28T16:46:55;28.50;51.70
74359;DHT22;62792;46.236;6.040;2023-07-28T16:51:58;28.50;51.60
74359;DHT22;62792;46.236;6.040;2023-07-28T16:57:02;28.50;51.60
74359;DHT22;62792;46.236;6.040;2023-07-28T17:02:05;28.40;51.70
74359;DHT22;62792;46.236;6.040;2023-07-28T17:07:08;28.40;52.00
74359;DHT22;62792;46.236;6.040;2023-07-28T17:12:13;28.40;52.10
74359;DHT22;62792;46.236;6.040;2023-07-28T17:17:15;28.40;52.20
74359;DHT22;62792;46.236;6.040;2023-07-28T17:22:18;28.30;52.40
74359;DHT22;62792;46.236;6.040;2023-07-28T17:27:23;28.20;52.60
74359;DHT22;62792;46.236;6.040;2023-07-28T17:32:26;28.30;52.40
74359;DHT22;62792;46.236;6.040;2023-07-28T17:37:29;28.30;52.20
74359;DHT22;62792;46.236;6.040;2023-07-28T17:42:33;28.30;52.50
74359;DHT22;62792;46.236;6.040;2023-07-28T17:47:36;28.30;52.00
74359;DHT22;62792;46.236;6.040;2023-07-28T17:52:40;28.20;52.20
74359;DHT22;62792;46.236;6.040;2023-07-28T17:57:44;28.20;52.30
74359;DHT22;62792;46.236;6.040;2023-07-28T18:02:47;28.20;52.40
74359;DHT22;62792;46.236;6.040;2023-07-28T18:07:50;28.20;52.50
74359;DHT22;62792;46.236;6.040;2023-07-28T18:12:54;28.20;52.70
74359;DHT22;62792;46.236;6.040;2023-07-28T18:17:57;28.10;52.80
74359;DHT22;62792;46.236;6.040;2023-07-28T18:23:00;28.00;52.90
74359;DHT22;62792;46.236;6.040;2023-07-28T18:28:04;28.10;52.90
74359;DHT22;62792;46.236;6.040;2023-07-28T18:33:07;28.10;52.90
74359;DHT22;62792;46.236;6.040;2023-07-28T18:38:11;28.10;53.10
74359;DHT22;62792;46.236;6.040;2023-07-28T18:43:16;28.00;53.40
74359;DHT22;62792;46.236;6.040;2023-07-28T18:48:19;28.10;53.30
74359;DHT22;62792;46.236;6.040;2023-07-28T18:53:22;28.00;53.50
74359;DHT22;62792;46.236;6.040;2023-07-28T18:58:26;28.00;53.40
74359;DHT22;62792;46.236;6.040;2023-07-28T19:03:29;28.00;53.70
74359;DHT22;62792;46.236;6.040;2023-07-28T19:08:34;27.90;53.40
74359;DHT22;62792;46.236;6.040;2023-07-28T19:13:39;28.00;53.70
74359;DHT22;62792;46.236;6.040;2023-07-28T19:18:42;27.90;53.70
74359;DHT22;62792;46.236;6.040;2023-07-28T19:23:45;27.90;53.70
74359;DHT22;62792;46.236;6.040;2023-07-28T19:28:49;27.90;53.90
74359;DHT22;62792;46.236;6.040;2023-07-28T19:33:52;27.90;53.50
74359;DHT22;62792;46.236;6.040;2023-07-28T19:38:55;27.90;54.00
74359;DHT22;62792;46.236;6.040;2023-07-28T19:43:59;27.80;53.70
74359;DHT22;62792;46.236;6.040;2023-07-28T19:49:02;27.80;53.90
74359;DHT22;62792;46.236;6.040;2023-07-28T19:54:06;27.90;53.80
74359;DHT22;62792;46.236;6.040;2023-07-28T19:59:10;27.90;53.60
74359;DHT22;62792;46.236;6.040;2023-07-28T20:04:14;27.90;53.50
74359;DHT22;62792;46.236;6.040;2023-07-28T20:09:17;27.80;53.50
74359;DHT22;62792;46.236;6.040;2023-07-28T20:14:22;27.80;53.50
74359;DHT22;62792;46.236;6.040;2023-07-28T20:19:25;27.70;53.40
74359;DHT22;62792;46.236;6.040;2023-07-28T20:24:28;27.70;53.80
74359;DHT22;62792;46.236;6.040;2023-07-28T20:29:32;27.70;53.60
74359;DHT22;62792;46.236;6.040;2023-07-28T20:34:35;27.70;53.80
74359;DHT22;62792;46.236;6.040;2023-07-28T20:39:38;27.70;53.80
74359;DHT22;62792;46.236;6.040;2023-07-28T20:44:42;27.70;53.80
74359;DHT22;62792;46.236;6.040;2023-07-28T20:49:45;27.70;53.80
74359;DHT22;62792;46.236;6.040;2023-07-28T20:54:49;27.60;53.80
74359;DHT22;62792;46.236;6.040;2023-07-28T20:59:53;27.70;54.10
74359;DHT22;62792;46.236;6.040;2023-07-28T21:04:56;27.70;54.00
74359;DHT22;62792;46.236;6.040;2023-07-28T21:10:00;27.60;53.80
74359;DHT22;62792;46.236;6.040;2023-07-28T21:15:04;27.60;54.00
74359;DHT22;62792;46.236;6.040;2023-07-28T21:20:08;27.50;54.10
74359;DHT22;62792;46.236;6.040;2023-07-28T21:25:12;27.60;54.10
74359;DHT22;62792;46.236;6.040;2023-07-28T21:30:16;27.50;54.10
74359;DHT22;62792;46.236;6.040;2023-07-28T21:35:19;27.60;54.10
74359;DHT22;62792;46.236;6.040;2023-07-28T21:40:22;27.60;54.10
74359;DHT22;62792;46.236;6.040;2023-07-28T21:45:26;27.60;54.30
74359;DHT22;62792;46.236;6.040;2023-07-28T21:50:29;27.50;54.40
74359;DHT22;62792;46.236;6.040;2023-07-28T21:55:32;27.50;54.30
74359;DHT22;62792;46.236;6.040;2023-07-28T22:00:37;27.50;54.40
74359;DHT22;62792;46.236;6.040;2023-07-28T22:05:40;27.60;54.60
74359;DHT22;62792;46.236;6.040;2023-07-28T22:10:43;27.50;54.70
74359;DHT22;62792;46.236;6.040;2023-07-28T22:15:47;27.50;55.00
74359;DHT22;62792;46.236;6.040;2023-07-28T22:20:50;27.50;55.40
74359;DHT22;62792;46.236;6.040;2023-07-28T22:25:53;27.50;55.30
74359;DHT22;62792;46.236;6.040;2023-07-28T22:30:57;27.50;55.50
74359;DHT22;62792;46.236;6.040;2023-07-28T22:36:01;27.50;55.50
74359;DHT22;62792;46.236;6.040;2023-07-28T22:41:04;27.40;55.80
74359;DHT22;62792;46.236;6.040;2023-07-28T22:46:08;27.50;55.90
74359;DHT22;62792;46.236;6.040;2023-07-28T22:51:12;27.50;56.00
74359;DHT22;62792;46.236;6.040;2023-07-28T22:56:16;27.50;55.70
74359;DHT22;62792;46.236;6.040;2023-07-28T23:01:20;27.40;55.70
74359;DHT22;62792;46.236;6.040;2023-07-28T23:06:23;27.40;56.20
74359;DHT22;62792;46.236;6.040;2023-07-28T23:11:26;27.40;56.00
74359;DHT22;62792;46.236;6.040;2023-07-28T23:16:30;27.40;56.10
74359;DHT22;62792;46.236;6.040;2023-07-28T23:21:34;27.30;56.20
74359;DHT22;62792;46.236;6.040;2023-07-28T23:26:37;27.30;56.40
74359;DHT22;62792;46.236;6.040;2023-07-28T23:31:42;27.20;56.40
74359;DHT22;62792;46.236;6.040;2023-07-28T23:36:45;27.30;56.40
74359;DHT22;62792;46.236;6.040;2023-07-28T23:41:48;27.40;56.60
74359;DHT22;62792;46.236;6.040;2023-07-28T23:46:52;27.30;56.80
74359;DHT22;62792;46.236;6.040;2023-07-28T23:51:55;27.30;56.90
74359;DHT22;62792;46.236;6.040;2023-07-28T23:56:58;27.20;57.10
